sensor_id;sensor_type;location;lat;lon;timestamp;temperature;humidity
17128;DHT22;8679;50.842;4.322;2023-03-01T00:02:20;1.10;99.90
17128;DHT22;8679;50.842;4.322;2023-03-01T00:04:46;1.10;99.90
17128;DHT22;8679;50.842;4.322;2023-03-01T00:07:12;1.10;99.90
17128;DHT22;8679;50.842;4.322;2023-03-01T00:09:37;1.00;99.90
17128;DHT22;8679;50.842;4.322;2023-03-01T00:12:03;1.00;99.90
17128;DHT22;8679;50.842;4.322;2023-03-01T00:14:29;1.00;99.90
17128;DHT22;8679;50.842;4.322;2023-03-01T00:16:55;1.00;99.90
17128;DHT22;8679;50.842;4.322;2023-03-01T00:19:20;1.00;99.90
17128;DHT22;8679;50.842;4.322;2023-03-01T00:21:48;1.00;99.90
17128;DHT22;8679;50.842;4.322;2023-03-01T00:24:13;1.00;99.90
17128;DHT22;8679;50.842;4.322;2023-03-01T00:26:39;1.00;99.90
17128;DHT22;8679;50.842;4.322;2023-03-01T00:29:05;1.00;99.90
17128;DHT22;8679;50.842;4.322;2023-03-01T00:31:32;0.90;99.90
17128;DHT22;8679;50.842;4.322;2023-03-01T00:34:00;0.90;99.90
17128;DHT22;8679;50.842;4.322;2023-03-01T00:36:29;0.90;99.90
17128;DHT22;8679;50.842;4.322;2023-03-01T00:38:56;0.80;99.90
17128;DHT22;8679;50.842;4.322;2023-03-01T00:41:22;0.80;99.90
17128;DHT22;8679;50.842;4.322;2023-03-01T00:43:49;0.80;99.90
17128;DHT22;8679;50.842;4.322;2023-03-01T00:46:17;0.80;99.90
17128;DHT22;8679;50.842;4.322;2023-03-01T00:48:44;0.80;99.90
17128;DHT22;8679;50.842;4.322;2023-03-01T00:51:14;0.70;99.90
17128;DHT22;8679;50.842;4.322;2023-03-01T00:53:40;0.70;99.90
17128;DHT22;8679;50.842;4.322;2023-03-01T00:56:07;0.70;99.90
17128;DHT22;8679;50.842;4.322;2023-03-01T00:58:33;0.70;99.90
17128;DHT22;8679;50.842;4.322;2023-03-01T01:01:00;0.70;99.90
17128;DHT22;8679;50.842;4.322;2023-03-01T01:03:27;0.70;99.90
17128;DHT22;8679;50.842;4.322;2023-03-01T01:05:53;0.60;99.90
17128;DHT22;8679;50.842;4.322;2023-03-01T01:08:20;0.60;99.90
17128;DHT22;8679;50.842;4.322;2023-03-01T01:10:46;0.60;99.90
17128;DHT22;8679;50.842;4.322;2023-03-01T01:13:12;0.60;99.90
17128;DHT22;8679;50.842;4.322;2023-03-01T01:15:39;0.70;99.90
17128;DHT22;8679;50.842;4.322;2023-03-01T01:18:04;0.70;99.90
17128;DHT22;8679;50.842;4.322;2023-03-01T01:20:31;0.60;99.90
17128;DHT22;8679;50.842;4.322;2023-03-01T01:22:57;0.70;99.90
17128;DHT22;8679;50.842;4.322;2023-03-01T01:25:23;0.60;99.90
17128;DHT22;8679;50.842;4.322;2023-03-01T01:27:51;0.60;99.90
17128;DHT22;8679;50.842;4.322;2023-03-01T01:30:17;0.60;99.90
17128;DHT22;8679;50.842;4.322;2023-03-01T01:32:43;0.60;99.90
17128;DHT22;8679;50.842;4.322;2023-03-01T01:35:08;0.60;99.90
17128;DHT22;8679;50.842;4.322;2023-03-01T01:37:34;0.50;99.90
17128;DHT22;8679;50.842;4.322;2023-03-01T01:40:01;0.40;99.90
17128;DHT22;8679;50.842;4.322;2023-03-01T01:42:30;0.50;99.90
17128;DHT22;8679;50.842;4.322;2023-03-01T01:48:02;0.40;99.90
17128;DHT22;8679;50.842;4.322;2023-03-01T01:50:28;0.40;99.90
17128;DHT22;8679;50.842;4.322;2023-03-01T01:53:14;0.40;99.90
17128;DHT22;8679;50.842;4.322;2023-03-01T01:55:45;0.40;99.90
17128;DHT22;8679;50.842;4.322;2023-03-01T01:58:13;0.30;99.90
17128;DHT22;8679;50.842;4.322;2023-03-01T02:00:40;0.30;99.90
17128;DHT22;8679;50.842;4.322;2023-03-01T02:03:18;0.30;99.90
17128;DHT22;8679;50.842;4.322;2023-03-01T02:05:52;0.20;99.90
17128;DHT22;8679;50.842;4.322;2023-03-01T02:08:21;0.20;99.90
17128;DHT22;8679;50.842;4.322;2023-03-01T02:10:49;0.30;99.90
17128;DHT22;8679;50.842;4.322;2023-03-01T02:13:15;0.40;99.90
17128;DHT22;8679;50.842;4.322;2023-03-01T02:15:41;0.40;99.90
17128;DHT22;8679;50.842;4.322;2023-03-01T02:18:10;0.30;99.90
17128;DHT22;8679;50.842;4.322;2023-03-01T02:21:05;0.20;99.90
17128;DHT22;8679;50.842;4.322;2023-03-01T02:23:34;0.20;99.90
17128;DHT22;8679;50.842;4.322;2023-03-01T02:28:40;0.20;99.90
17128;DHT22;8679;50.842;4.322;2023-03-01T02:31:09;0.10;99.90
17128;DHT22;8679;50.842;4.322;2023-03-01T02:33:55;0.20;99.90
17128;DHT22;8679;50.842;4.322;2023-03-01T02:36:25;0.10;99.90
17128;DHT22;8679;50.842;4.322;2023-03-01T02:38:56;0.10;99.90
17128;DHT22;8679;50.842;4.322;2023-03-01T02:41:22;0.00;99.90
17128;DHT22;8679;50.842;4.322;2023-03-01T02:43:49;0.00;99.90
17128;DHT22;8679;50.842;4.322;2023-03-01T02:46:18;-0.10;99.90
17128;DHT22;8679;50.842;4.322;2023-03-01T02:48:47;-0.10;99.90
17128;DHT22;8679;50.842;4.322;2023-03-01T02:56:53;-0.20;99.90
17128;DHT22;8679;50.842;4.322;2023-03-01T02:59:22;-0.20;99.90
17128;DHT22;8679;50.842;4.322;2023-03-01T03:01:50;-0.20;99.90
17128;DHT22;8679;50.842;4.322;2023-03-01T03:04:17;-0.20;99.90
17128;DHT22;8679;50.842;4.322;2023-03-01T03:06:48;-0.20;99.90
17128;DHT22;8679;50.842;4.322;2023-03-01T03:09:15;-0.20;99.90
17128;DHT22;8679;50.842;4.322;2023-03-01T03:11:41;-0.20;99.90
17128;DHT22;8679;50.842;4.322;2023-03-01T03:14:09;-0.20;99.90
17128;DHT22;8679;50.842;4.322;2023-03-01T03:16:49;-0.30;99.90
17128;DHT22;8679;50.842;4.322;2023-03-01T03:19:16;-0.20;99.90
17128;DHT22;8679;50.842;4.322;2023-03-01T03:21:42;-0.10;99.90
17128;DHT22;8679;50.842;4.322;2023-03-01T03:24:08;-0.10;99.90
17128;DHT22;8679;50.842;4.322;2023-03-01T03:26:33;-0.20;99.90
17128;DHT22;8679;50.842;4.322;2023-03-01T03:28:59;-0.20;99.90
17128;DHT22;8679;50.842;4.322;2023-03-01T03:31:25;-0.20;99.90
17128;DHT22;8679;50.842;4.322;2023-03-01T03:33:51;-0.30;99.90
17128;DHT22;8679;50.842;4.322;2023-03-01T03:36:22;-0.20;99.90
17128;DHT22;8679;50.842;4.322;2023-03-01T03:38:49;-0.30;99.90
17128;DHT22;8679;50.842;4.322;2023-03-01T03:41:15;-0.20;99.90
17128;DHT22;8679;50.842;4.322;2023-03-01T03:43:42;-0.20;99.90
17128;DHT22;8679;50.842;4.322;2023-03-01T03:46:09;-0.20;99.90
17128;DHT22;8679;50.842;4.322;2023-03-01T03:48:41;-0.30;99.90
17128;DHT22;8679;50.842;4.322;2023-03-01T03:51:10;-0.20;99.90
17128;DHT22;8679;50.842;4.322;2023-03-01T03:53:37;-0.20;99.90
17128;DHT22;8679;50.842;4.322;2023-03-01T03:56:02;-0.20;99.90
17128;DHT22;8679;50.842;4.322;2023-03-01T03:58:29;-0.30;99.90
17128;DHT22;8679;50.842;4.322;2023-03-01T04:00:56;-0.20;99.90
17128;DHT22;8679;50.842;4.322;2023-03-01T04:03:23;-0.30;99.90
17128;DHT22;8679;50.842;4.322;2023-03-01T04:05:50;-0.30;99.90
17128;DHT22;8679;50.842;4.322;2023-03-01T04:08:21;-0.30;99.90
17128;DHT22;8679;50.842;4.322;2023-03-01T04:10:50;-0.30;99.90
17128;DHT22;8679;50.842;4.322;2023-03-01T04:13:19;-0.30;99.90
17128;DHT22;8679;50.842;4.322;2023-03-01T04:15:46;-0.30;99.90
17128;DHT22;8679;50.842;4.322;2023-03-01T04:18:14;-0.30;99.90
17128;DHT22;8679;50.842;4.322;2023-03-01T04:20:40;-0.30;99.90
17128;DHT22;8679;50.842;4.322;2023-03-01T04:23:17;-0.40;99.90
17128;DHT22;8679;50.842;4.322;2023-03-01T04:25:55;-0.40;99.90
17128;DHT22;8679;50.842;4.322;2023-03-01T04:28:29;-0.40;99.90
17128;DHT22;8679;50.842;4.322;2023-03-01T04:30:57;-0.50;99.90
17128;DHT22;8679;50.842;4.322;2023-03-01T04:33:24;-0.50;99.90
17128;DHT22;8679;50.842;4.322;2023-03-01T04:35:53;-0.50;99.90
17128;DHT22;8679;50.842;4.322;2023-03-01T04:38:21;-0.60;99.90
17128;DHT22;8679;50.842;4.322;2023-03-01T04:40:47;-0.60;99.90
17128;DHT22;8679;50.842;4.322;2023-03-01T04:43:13;-0.70;99.90
17128;DHT22;8679;50.842;4.322;2023-03-01T04:45:40;-0.70;99.90
17128;DHT22;8679;50.842;4.322;2023-03-01T04:48:06;-0.70;99.90
17128;DHT22;8679;50.842;4.322;2023-03-01T04:50:31;-0.70;99.90
17128;DHT22;8679;50.842;4.322;2023-03-01T04:52:57;-0.70;99.90
17128;DHT22;8679;50.842;4.322;2023-03-01T04:55:27;-0.70;99.90
17128;DHT22;8679;50.842;4.322;2023-03-01T04:57:53;-0.70;99.90
17128;DHT22;8679;50.842;4.322;2023-03-01T05:00:20;-0.70;99.90
17128;DHT22;8679;50.842;4.322;2023-03-01T05:02:55;-0.70;99.90
17128;DHT22;8679;50.842;4.322;2023-03-01T05:05:26;-0.80;99.90
17128;DHT22;8679;50.842;4.322;2023-03-01T05:07:58;-0.80;99.90
17128;DHT22;8679;50.842;4.322;2023-03-01T05:10:25;-0.80;99.90
17128;DHT22;8679;50.842;4.322;2023-03-01T05:12:51;-0.70;99.90
17128;DHT22;8679;50.842;4.322;2023-03-01T05:15:18;-0.70;99.90
17128;DHT22;8679;50.842;4.322;2023-03-01T05:17:44;-0.70;99.90
17128;DHT22;8679;50.842;4.322;2023-03-01T05:20:10;-0.70;99.90
17128;DHT22;8679;50.842;4.322;2023-03-01T05:22:37;-0.80;99.90
17128;DHT22;8679;50.842;4.322;2023-03-01T05:25:03;-0.80;99.90
17128;DHT22;8679;50.842;4.322;2023-03-01T05:27:29;-0.80;99.90
17128;DHT22;8679;50.842;4.322;2023-03-01T05:29:56;-0.80;99.90
17128;DHT22;8679;50.842;4.322;2023-03-01T05:32:22;-0.90;99.90
17128;DHT22;8679;50.842;4.322;2023-03-01T05:34:47;-0.90;99.90
17128;DHT22;8679;50.842;4.322;2023-03-01T05:37:13;-0.90;99.90
17128;DHT22;8679;50.842;4.322;2023-03-01T05:39:39;-0.90;99.90
17128;DHT22;8679;50.842;4.322;2023-03-01T05:42:05;-0.90;99.90
17128;DHT22;8679;50.842;4.322;2023-03-01T05:44:31;-0.90;99.90
17128;DHT22;8679;50.842;4.322;2023-03-01T05:46:57;-1.00;99.90
17128;DHT22;8679;50.842;4.322;2023-03-01T05:49:23;-0.90;99.90
17128;DHT22;8679;50.842;4.322;2023-03-01T05:51:51;-1.00;99.90
17128;DHT22;8679;50.842;4.322;2023-03-01T05:54:18;-1.00;99.90
17128;DHT22;8679;50.842;4.322;2023-03-01T05:56:44;-0.90;99.90
17128;DHT22;8679;50.842;4.322;2023-03-01T05:59:11;-1.00;99.90
17128;DHT22;8679;50.842;4.322;2023-03-01T06:01:37;-1.00;99.90
17128;DHT22;8679;50.842;4.322;2023-03-01T06:04:03;-1.00;99.90
17128;DHT22;8679;50.842;4.322;2023-03-01T06:06:29;-1.00;99.90
17128;DHT22;8679;50.842;4.322;2023-03-01T06:08:58;-1.10;99.90
17128;DHT22;8679;50.842;4.322;2023-03-01T06:11:24;-1.10;99.90
17128;DHT22;8679;50.842;4.322;2023-03-01T06:13:50;-1.20;99.90
17128;DHT22;8679;50.842;4.322;2023-03-01T06:16:15;-1.10;99.90
17128;DHT22;8679;50.842;4.322;2023-03-01T06:18:42;-1.10;99.90
17128;DHT22;8679;50.842;4.322;2023-03-01T06:21:08;-1.10;99.90
17128;DHT22;8679;50.842;4.322;2023-03-01T06:23:34;-1.00;99.90
17128;DHT22;8679;50.842;4.322;2023-03-01T06:26:04;-1.00;99.90
17128;DHT22;8679;50.842;4.322;2023-03-01T06:28:30;-1.00;99.90
17128;DHT22;8679;50.842;4.322;2023-03-01T06:30:55;-1.10;99.90
17128;DHT22;8679;50.842;4.322;2023-03-01T06:33:21;-1.00;99.90
17128;DHT22;8679;50.842;4.322;2023-03-01T06:35:50;-1.00;99.90
17128;DHT22;8679;50.842;4.322;2023-03-01T06:38:15;-1.00;99.90
17128;DHT22;8679;50.842;4.322;2023-03-01T06:40:43;-0.90;99.90
17128;DHT22;8679;50.842;4.322;2023-03-01T06:43:09;-0.90;99.90
17128;DHT22;8679;50.842;4.322;2023-03-01T06:45:35;-0.90;99.90
17128;DHT22;8679;50.842;4.322;2023-03-01T06:48:03;-0.90;99.90
17128;DHT22;8679;50.842;4.322;2023-03-01T06:50:29;-0.90;99.90
17128;DHT22;8679;50.842;4.322;2023-03-01T06:52:58;-1.00;99.90
17128;DHT22;8679;50.842;4.322;2023-03-01T06:55:24;-0.90;99.90
17128;DHT22;8679;50.842;4.322;2023-03-01T06:57:57;-0.90;99.90
17128;DHT22;8679;50.842;4.322;2023-03-01T07:00:24;-0.80;99.90
17128;DHT22;8679;50.842;4.322;2023-03-01T07:02:50;-0.80;99.90
17128;DHT22;8679;50.842;4.322;2023-03-01T07:05:16;-0.80;99.90
17128;DHT22;8679;50.842;4.322;2023-03-01T07:07:42;-0.80;99.90
17128;DHT22;8679;50.842;4.322;2023-03-01T07:10:08;-0.60;99.90
17128;DHT22;8679;50.842;4.322;2023-03-01T07:12:34;-0.50;99.90
17128;DHT22;8679;50.842;4.322;2023-03-01T07:14:59;-0.50;99.90
17128;DHT22;8679;50.842;4.322;2023-03-01T07:17:25;-0.40;99.90
17128;DHT22;8679;50.842;4.322;2023-03-01T07:19:51;-0.30;99.90
17128;DHT22;8679;50.842;4.322;2023-03-01T07:22:17;-0.20;99.90
17128;DHT22;8679;50.842;4.322;2023-03-01T07:24:43;0.20;99.90
17128;DHT22;8679;50.842;4.322;2023-03-01T07:27:09;0.60;99.90
17128;DHT22;8679;50.842;4.322;2023-03-01T07:29:35;1.00;99.90
17128;DHT22;8679;50.842;4.322;2023-03-01T07:32:04;1.50;99.90
17128;DHT22;8679;50.842;4.322;2023-03-01T07:34:34;1.70;99.90
17128;DHT22;8679;50.842;4.322;2023-03-01T07:37:00;1.70;99.90
17128;DHT22;8679;50.842;4.322;2023-03-01T07:39:35;1.50;99.90
17128;DHT22;8679;50.842;4.322;2023-03-01T07:42:07;1.10;99.90
17128;DHT22;8679;50.842;4.322;2023-03-01T07:44:33;0.90;99.90
17128;DHT22;8679;50.842;4.322;2023-03-01T07:47:00;0.80;99.90
17128;DHT22;8679;50.842;4.322;2023-03-01T07:49:26;0.70;99.90
17128;DHT22;8679;50.842;4.322;2023-03-01T07:51:54;0.60;99.90
17128;DHT22;8679;50.842;4.322;2023-03-01T07:54:20;0.60;99.90
17128;DHT22;8679;50.842;4.322;2023-03-01T07:56:46;0.60;99.90
17128;DHT22;8679;50.842;4.322;2023-03-01T07:59:12;0.60;99.90
17128;DHT22;8679;50.842;4.322;2023-03-01T08:01:37;0.60;99.90
17128;DHT22;8679;50.842;4.322;2023-03-01T08:04:03;0.70;99.90
17128;DHT22;8679;50.842;4.322;2023-03-01T08:06:34;0.70;99.90
17128;DHT22;8679;50.842;4.322;2023-03-01T08:09:00;0.70;99.90
17128;DHT22;8679;50.842;4.322;2023-03-01T08:11:26;0.80;99.90
17128;DHT22;8679;50.842;4.322;2023-03-01T08:13:53;0.80;99.90
17128;DHT22;8679;50.842;4.322;2023-03-01T08:16:19;0.90;99.90
17128;DHT22;8679;50.842;4.322;2023-03-01T08:18:45;0.90;99.90
17128;DHT22;8679;50.842;4.322;2023-03-01T08:21:16;1.00;99.90
17128;DHT22;8679;50.842;4.322;2023-03-01T08:23:43;1.00;99.90
17128;DHT22;8679;50.842;4.322;2023-03-01T08:28:38;1.20;99.90
17128;DHT22;8679;50.842;4.322;2023-03-01T08:31:17;1.20;99.90
17128;DHT22;8679;50.842;4.322;2023-03-01T08:33:43;1.30;99.90
17128;DHT22;8679;50.842;4.322;2023-03-01T08:36:10;1.40;99.90
17128;DHT22;8679;50.842;4.322;2023-03-01T08:38:35;1.50;99.90
17128;DHT22;8679;50.842;4.322;2023-03-01T08:41:02;1.50;99.90
17128;DHT22;8679;50.842;4.322;2023-03-01T08:43:28;1.60;99.90
17128;DHT22;8679;50.842;4.322;2023-03-01T08:45:54;1.70;99.90
17128;DHT22;8679;50.842;4.322;2023-03-01T08:48:20;1.80;99.90
17128;DHT22;8679;50.842;4.322;2023-03-01T08:50:45;2.00;99.90
17128;DHT22;8679;50.842;4.322;2023-03-01T08:53:11;2.00;99.90
17128;DHT22;8679;50.842;4.322;2023-03-01T08:55:37;2.00;99.90
17128;DHT22;8679;50.842;4.322;2023-03-01T08:58:02;2.10;99.90
17128;DHT22;8679;50.842;4.322;2023-03-01T09:00:28;2.10;99.90
17128;DHT22;8679;50.842;4.322;2023-03-01T09:02:53;2.20;99.90
17128;DHT22;8679;50.842;4.322;2023-03-01T09:05:19;2.40;99.90
17128;DHT22;8679;50.842;4.322;2023-03-01T09:07:45;2.40;99.90
17128;DHT22;8679;50.842;4.322;2023-03-01T09:10:10;2.40;99.90
17128;DHT22;8679;50.842;4.322;2023-03-01T09:12:36;2.50;99.90
17128;DHT22;8679;50.842;4.322;2023-03-01T09:15:02;2.60;99.90
17128;DHT22;8679;50.842;4.322;2023-03-01T09:17:28;2.70;99.90
17128;DHT22;8679;50.842;4.322;2023-03-01T09:19:53;2.80;99.90
17128;DHT22;8679;50.842;4.322;2023-03-01T09:22:19;2.80;99.90
17128;DHT22;8679;50.842;4.322;2023-03-01T09:24:45;2.90;99.90
17128;DHT22;8679;50.842;4.322;2023-03-01T09:27:10;2.90;99.90
17128;DHT22;8679;50.842;4.322;2023-03-01T09:29:38;2.90;99.90
17128;DHT22;8679;50.842;4.322;2023-03-01T09:32:03;3.00;99.90
17128;DHT22;8679;50.842;4.322;2023-03-01T09:34:29;3.00;99.90
17128;DHT22;8679;50.842;4.322;2023-03-01T09:36:56;3.10;99.90
17128;DHT22;8679;50.842;4.322;2023-03-01T09:39:22;3.20;99.90
17128;DHT22;8679;50.842;4.322;2023-03-01T09:42:02;3.20;99.90
17128;DHT22;8679;50.842;4.322;2023-03-01T09:44:48;3.30;99.90
17128;DHT22;8679;50.842;4.322;2023-03-01T09:47:20;3.30;99.90
17128;DHT22;8679;50.842;4.322;2023-03-01T09:50:06;3.40;99.90
17128;DHT22;8679;50.842;4.322;2023-03-01T09:52:43;3.40;99.90
17128;DHT22;8679;50.842;4.322;2023-03-01T09:55:15;3.50;99.90
17128;DHT22;8679;50.842;4.322;2023-03-01T10:00:44;3.70;99.90
17128;DHT22;8679;50.842;4.322;2023-03-01T10:03:17;3.70;99.90
17128;DHT22;8679;50.842;4.322;2023-03-01T10:06:21;3.80;99.90
17128;DHT22;8679;50.842;4.322;2023-03-01T10:11:41;4.00;99.90
17128;DHT22;8679;50.842;4.322;2023-03-01T10:19:47;4.30;99.90
17128;DHT22;8679;50.842;4.322;2023-03-01T10:22:17;4.20;99.90
17128;DHT22;8679;50.842;4.322;2023-03-01T10:24:43;4.20;99.90
17128;DHT22;8679;50.842;4.322;2023-03-01T10:27:37;4.20;99.90
17128;DHT22;8679;50.842;4.322;2023-03-01T10:30:19;4.40;99.90
17128;DHT22;8679;50.842;4.322;2023-03-01T10:32:48;4.40;99.90
17128;DHT22;8679;50.842;4.322;2023-03-01T10:35:20;4.50;99.90
17128;DHT22;8679;50.842;4.322;2023-03-01T10:38:07;4.50;99.90
17128;DHT22;8679;50.842;4.322;2023-03-01T10:40:36;4.70;99.90
17128;DHT22;8679;50.842;4.322;2023-03-01T10:43:05;4.80;99.90
17128;DHT22;8679;50.842;4.322;2023-03-01T10:45:34;4.90;99.90
17128;DHT22;8679;50.842;4.322;2023-03-01T10:48:19;5.00;99.90
17128;DHT22;8679;50.842;4.322;2023-03-01T10:51:12;5.10;99.90
17128;DHT22;8679;50.842;4.322;2023-03-01T10:53:57;5.20;99.90
17128;DHT22;8679;50.842;4.322;2023-03-01T10:56:22;5.20;99.90
17128;DHT22;8679;50.842;4.322;2023-03-01T10:59:04;5.30;99.90
17128;DHT22;8679;50.842;4.322;2023-03-01T11:01:32;5.30;99.90
17128;DHT22;8679;50.842;4.322;2023-03-01T11:06:34;5.50;99.90
17128;DHT22;8679;50.842;4.322;2023-03-01T11:09:21;5.70;99.90
17128;DHT22;8679;50.842;4.322;2023-03-01T11:11:52;5.90;99.90
17128;DHT22;8679;50.842;4.322;2023-03-01T11:14:21;6.00;99.90
17128;DHT22;8679;50.842;4.322;2023-03-01T11:16:57;6.10;99.90
17128;DHT22;8679;50.842;4.322;2023-03-01T11:19:23;6.10;99.90
17128;DHT22;8679;50.842;4.322;2023-03-01T11:22:02;6.20;99.90
17128;DHT22;8679;50.842;4.322;2023-03-01T11:27:03;6.40;99.90
17128;DHT22;8679;50.842;4.322;2023-03-01T11:29:55;6.50;99.90
17128;DHT22;8679;50.842;4.322;2023-03-01T11:32:24;6.70;99.90
17128;DHT22;8679;50.842;4.322;2023-03-01T11:35:02;6.80;99.90
17128;DHT22;8679;50.842;4.322;2023-03-01T11:37:44;6.90;99.90
17128;DHT22;8679;50.842;4.322;2023-03-01T11:40:25;7.00;99.90
17128;DHT22;8679;50.842;4.322;2023-03-01T11:43:19;7.00;99.90
17128;DHT22;8679;50.842;4.322;2023-03-01T11:49:07;7.40;99.90
17128;DHT22;8679;50.842;4.322;2023-03-01T11:51:55;7.70;99.90
17128;DHT22;8679;50.842;4.322;2023-03-01T12:00:23;8.80;99.90
17128;DHT22;8679;50.842;4.322;2023-03-01T12:08:38;10.40;99.90
17128;DHT22;8679;50.842;4.322;2023-03-01T12:14:42;11.30;99.90
17128;DHT22;8679;50.842;4.322;2023-03-01T12:20:08;11.90;98.30
17128;DHT22;8679;50.842;4.322;2023-03-01T12:25:33;12.50;94.70
17128;DHT22;8679;50.842;4.322;2023-03-01T12:30:52;12.70;87.60
17128;DHT22;8679;50.842;4.322;2023-03-01T12:50:35;13.80;56.10
17128;DHT22;8679;50.842;4.322;2023-03-01T12:53:02;14.10;57.60
17128;DHT22;8679;50.842;4.322;2023-03-01T12:55:32;14.30;53.40
17128;DHT22;8679;50.842;4.322;2023-03-01T12:58:24;14.60;49.10
17128;DHT22;8679;50.842;4.322;2023-03-01T13:04:14;15.20;47.70
17128;DHT22;8679;50.842;4.322;2023-03-01T13:06:55;15.50;44.30
17128;DHT22;8679;50.842;4.322;2023-03-01T13:09:51;15.30;41.00
17128;DHT22;8679;50.842;4.322;2023-03-01T13:33:47;14.40;29.90
17128;DHT22;8679;50.842;4.322;2023-03-01T13:39:02;15.40;33.10
17128;DHT22;8679;50.842;4.322;2023-03-01T13:46:53;15.00;27.40
17128;DHT22;8679;50.842;4.322;2023-03-01T13:49:22;15.50;30.00
17128;DHT22;8679;50.842;4.322;2023-03-01T13:51:50;15.50;29.30
17128;DHT22;8679;50.842;4.322;2023-03-01T13:54:32;15.60;29.20
17128;DHT22;8679;50.842;4.322;2023-03-01T13:57:01;15.60;28.70
17128;DHT22;8679;50.842;4.322;2023-03-01T13:59:27;15.90;27.20
17128;DHT22;8679;50.842;4.322;2023-03-01T14:01:59;15.70;27.00
17128;DHT22;8679;50.842;4.322;2023-03-01T14:04:31;15.70;25.90
17128;DHT22;8679;50.842;4.322;2023-03-01T14:07:20;15.90;26.90
17128;DHT22;8679;50.842;4.322;2023-03-01T14:09:51;15.90;25.90
17128;DHT22;8679;50.842;4.322;2023-03-01T14:17:50;15.10;24.20
17128;DHT22;8679;50.842;4.322;2023-03-01T14:20:21;14.90;26.80
17128;DHT22;8679;50.842;4.322;2023-03-01T14:22:49;15.40;25.90
17128;DHT22;8679;50.842;4.322;2023-03-01T14:25:33;15.70;25.30
17128;DHT22;8679;50.842;4.322;2023-03-01T14:28:21;15.50;24.30
17128;DHT22;8679;50.842;4.322;2023-03-01T14:30:50;15.60;26.00
17128;DHT22;8679;50.842;4.322;2023-03-01T14:33:27;16.00;26.00
17128;DHT22;8679;50.842;4.322;2023-03-01T14:41:00;15.60;24.50
17128;DHT22;8679;50.842;4.322;2023-03-01T14:43:28;15.50;24.50
17128;DHT22;8679;50.842;4.322;2023-03-01T14:45:54;15.20;23.90
17128;DHT22;8679;50.842;4.322;2023-03-01T14:48:21;15.00;23.30
17128;DHT22;8679;50.842;4.322;2023-03-01T14:50:47;14.80;23.00
17128;DHT22;8679;50.842;4.322;2023-03-01T14:53:23;14.70;22.40
17128;DHT22;8679;50.842;4.322;2023-03-01T14:55:55;14.70;23.80
17128;DHT22;8679;50.842;4.322;2023-03-01T14:58:23;14.90;25.50
17128;DHT22;8679;50.842;4.322;2023-03-01T15:03:30;15.00;24.40
17128;DHT22;8679;50.842;4.322;2023-03-01T15:05:56;15.10;24.90
17128;DHT22;8679;50.842;4.322;2023-03-01T15:08:25;15.50;25.10
17128;DHT22;8679;50.842;4.322;2023-03-01T15:11:22;15.40;24.50
17128;DHT22;8679;50.842;4.322;2023-03-01T15:13:50;15.20;23.40
17128;DHT22;8679;50.842;4.322;2023-03-01T15:16:24;15.10;22.70
17128;DHT22;8679;50.842;4.322;2023-03-01T15:18:56;15.20;25.00
17128;DHT22;8679;50.842;4.322;2023-03-01T15:21:25;14.80;23.60
17128;DHT22;8679;50.842;4.322;2023-03-01T15:23:56;15.10;24.50
17128;DHT22;8679;50.842;4.322;2023-03-01T15:26:30;15.00;23.80
17128;DHT22;8679;50.842;4.322;2023-03-01T15:28:57;14.90;24.70
17128;DHT22;8679;50.842;4.322;2023-03-01T15:31:29;15.00;24.90
17128;DHT22;8679;50.842;4.322;2023-03-01T15:34:21;14.60;22.90
17128;DHT22;8679;50.842;4.322;2023-03-01T15:36:48;14.60;23.40
17128;DHT22;8679;50.842;4.322;2023-03-01T15:44:34;14.70;23.90
17128;DHT22;8679;50.842;4.322;2023-03-01T15:47:01;14.70;23.80
17128;DHT22;8679;50.842;4.322;2023-03-01T15:49:39;14.30;24.90
17128;DHT22;8679;50.842;4.322;2023-03-01T15:52:13;14.10;24.70
17128;DHT22;8679;50.842;4.322;2023-03-01T15:54:39;14.20;25.80
17128;DHT22;8679;50.842;4.322;2023-03-01T15:57:12;14.00;25.40
17128;DHT22;8679;50.842;4.322;2023-03-01T15:59:38;13.90;24.70
17128;DHT22;8679;50.842;4.322;2023-03-01T16:02:09;13.90;25.60
17128;DHT22;8679;50.842;4.322;2023-03-01T16:04:36;13.90;25.90
17128;DHT22;8679;50.842;4.322;2023-03-01T16:07:02;14.10;25.30
17128;DHT22;8679;50.842;4.322;2023-03-01T16:09:27;14.10;25.50
17128;DHT22;8679;50.842;4.322;2023-03-01T16:11:53;13.90;25.40
17128;DHT22;8679;50.842;4.322;2023-03-01T16:14:28;13.80;25.00
17128;DHT22;8679;50.842;4.322;2023-03-01T16:16:54;13.70;25.00
17128;DHT22;8679;50.842;4.322;2023-03-01T16:19:19;13.60;25.80
17128;DHT22;8679;50.842;4.322;2023-03-01T16:21:45;13.50;25.70
17128;DHT22;8679;50.842;4.322;2023-03-01T16:24:13;13.40;26.70
17128;DHT22;8679;50.842;4.322;2023-03-01T16:26:38;13.40;26.50
17128;DHT22;8679;50.842;4.322;2023-03-01T16:29:04;13.20;26.30
17128;DHT22;8679;50.842;4.322;2023-03-01T16:31:30;13.20;26.10
17128;DHT22;8679;50.842;4.322;2023-03-01T16:33:57;13.20;27.30
17128;DHT22;8679;50.842;4.322;2023-03-01T16:36:25;12.90;27.40
17128;DHT22;8679;50.842;4.322;2023-03-01T16:38:52;12.80;28.00
17128;DHT22;8679;50.842;4.322;2023-03-01T16:41:21;12.80;27.90
17128;DHT22;8679;50.842;4.322;2023-03-01T16:43:47;12.60;28.80
17128;DHT22;8679;50.842;4.322;2023-03-01T16:48:44;12.80;27.70
17128;DHT22;8679;50.842;4.322;2023-03-01T16:51:11;12.80;27.70
17128;DHT22;8679;50.842;4.322;2023-03-01T16:53:37;12.80;28.00
17128;DHT22;8679;50.842;4.322;2023-03-01T16:56:05;13.00;27.80
17128;DHT22;8679;50.842;4.322;2023-03-01T16:58:31;12.80;27.70
17128;DHT22;8679;50.842;4.322;2023-03-01T17:01:07;12.50;28.20
17128;DHT22;8679;50.842;4.322;2023-03-01T17:03:33;12.20;29.20
17128;DHT22;8679;50.842;4.322;2023-03-01T17:06:07;12.00;29.80
17128;DHT22;8679;50.842;4.322;2023-03-01T17:08:34;11.50;30.50
17128;DHT22;8679;50.842;4.322;2023-03-01T17:11:07;10.90;31.60
17128;DHT22;8679;50.842;4.322;2023-03-01T17:13:34;10.30;34.80
17128;DHT22;8679;50.842;4.322;2023-03-01T17:16:02;9.90;38.50
17128;DHT22;8679;50.842;4.322;2023-03-01T17:18:27;9.40;40.80
17128;DHT22;8679;50.842;4.322;2023-03-01T17:20:53;9.00;44.60
17128;DHT22;8679;50.842;4.322;2023-03-01T17:23:19;8.70;47.60
17128;DHT22;8679;50.842;4.322;2023-03-01T17:25:45;8.50;51.20
17128;DHT22;8679;50.842;4.322;2023-03-01T17:28:11;8.20;56.30
17128;DHT22;8679;50.842;4.322;2023-03-01T17:30:37;8.00;57.80
17128;DHT22;8679;50.842;4.322;2023-03-01T17:33:06;7.90;63.40
17128;DHT22;8679;50.842;4.322;2023-03-01T17:35:31;7.70;65.90
17128;DHT22;8679;50.842;4.322;2023-03-01T17:38:01;7.60;68.10
17128;DHT22;8679;50.842;4.322;2023-03-01T17:40:27;7.50;71.50
17128;DHT22;8679;50.842;4.322;2023-03-01T17:42:52;7.30;74.60
17128;DHT22;8679;50.842;4.322;2023-03-01T17:45:18;7.20;78.00
17128;DHT22;8679;50.842;4.322;2023-03-01T17:47:44;7.10;80.80
17128;DHT22;8679;50.842;4.322;2023-03-01T17:50:10;7.00;85.00
17128;DHT22;8679;50.842;4.322;2023-03-01T17:52:36;6.90;86.60
17128;DHT22;8679;50.842;4.322;2023-03-01T17:55:03;6.80;90.80
17128;DHT22;8679;50.842;4.322;2023-03-01T17:57:29;6.70;92.10
17128;DHT22;8679;50.842;4.322;2023-03-01T17:59:55;6.60;94.20
17128;DHT22;8679;50.842;4.322;2023-03-01T18:02:21;6.60;95.10
17128;DHT22;8679;50.842;4.322;2023-03-01T18:04:46;6.50;95.90
17128;DHT22;8679;50.842;4.322;2023-03-01T18:07:12;6.40;98.10
17128;DHT22;8679;50.842;4.322;2023-03-01T18:09:38;6.30;99.60
17128;DHT22;8679;50.842;4.322;2023-03-01T18:12:03;6.20;99.90
17128;DHT22;8679;50.842;4.322;2023-03-01T18:14:29;6.20;99.90
17128;DHT22;8679;50.842;4.322;2023-03-01T18:16:59;6.10;99.90